Lane, California
Current Conditions -  °F | °C
As of 4:56 AM on Friday 28 Nov 2014 (Local Time) from KWJF Reporting Station
Clear Clear  
Wind Chill: 25°   Ceiling: Unl
Heat Index: 30°   Visibility: 10mi
Dew Point: 12°   Wind: 5mph
Humidity: 47%   Direction: 260°W
Pressure: 30.1"   Gusts: NA
Location:  34.7349°N, 118.15°W
Report Text: KWJF 281256Z 26004KT 10SM CLR M01/M11 A3010 RMK AO2 SLP197 T10111111
Loading
Personal Weather Stations






























Interactive Weather Map New forecast layout! Learn more

10-Day Weather Forecast

Advertisements
Track Severe Weather on mobile